Time;durP1;ratioP1;P1;durP2;ratioP2;P2;SDS_P1;SDS_P2;PMS_P1;PMS_P2;Temp;Humidity;BMP_temperature;BMP_pressure;BME280_temperature;BME280_humidity;BME280_pressure;Samples;Min_cycle;Max_cycle;Signal;HPM_P1;HPM_P2
2022/01/23 00:00:51;;;;;;;7.95;4.45;;;6.60;99.90;;;6.85;84.85;102438.56;5033964;28;20660;-69
2022/01/23 00:03:19;;;;;;;5.63;3.67;;;6.60;99.90;;;6.66;86.02;102432.19;5050078;28;20204;-70
2022/01/23 00:05:50;;;;;;;6.53;3.85;;;6.50;99.90;;;6.83;85.81;102423.06;5050606;28;20631;-69
2022/01/23 00:08:21;;;;;;;6.87;4.00;;;6.60;99.90;;;6.83;84.68;102417.88;5047128;28;20238;-69
2022/01/23 00:10:51;;;;;;;5.73;3.67;;;6.60;99.90;;;6.68;85.87;102426.06;5049814;28;20731;-69
2022/01/23 00:13:28;;;;;;;6.40;4.47;;;6.60;99.90;;;6.75;85.41;102419.81;5052972;28;20659;-69
2022/01/23 00:18:41;;;;;;;6.03;3.67;;;6.60;99.90;;;6.86;84.99;102422.09;5054626;28;20533;-70
2022/01/23 00:21:08;;;;;;;5.87;3.53;;;6.60;99.90;;;6.87;84.57;102426.41;5053183;28;20618;-69
2022/01/23 00:31:39;;;;;;;6.57;4.00;;;6.70;99.90;;;6.90;85.15;102431.50;5053242;28;20239;-69
2022/01/23 00:34:06;;;;;;;7.33;4.13;;;6.70;99.90;;;6.89;84.45;102422.88;5049873;28;21252;-69
2022/01/23 00:36:35;;;;;;;7.77;4.13;;;6.70;99.90;;;6.90;84.71;102424.56;5035173;28;20619;-69
2022/01/23 00:39:03;;;;;;;8.30;4.50;;;6.70;99.90;;;6.72;84.68;102432.88;5049051;28;20738;-69
2022/01/23 00:41:30;;;;;;;6.83;4.17;;;6.60;99.90;;;6.79;85.08;102428.38;5048472;28;20645;-68
2022/01/23 00:43:57;;;;;;;6.70;4.37;;;6.60;99.90;;;6.79;84.59;102424.00;5047590;28;20697;-69
2022/01/23 00:46:31;;;;;;;3.70;3.20;;;6.60;99.90;;;6.77;85.36;102427.56;5051746;28;20615;-69
2022/01/23 00:51:32;;;;;;;3.40;3.10;;;6.60;99.90;;;6.90;84.20;102427.16;5051686;28;20661;-69
2022/01/23 00:54:02;;;;;;;4.40;3.43;;;6.70;99.90;;;6.93;84.23;102418.44;5047980;28;20707;-70
2022/01/23 00:56:29;;;;;;;7.97;4.80;;;6.70;99.90;;;6.89;84.71;102415.09;5043181;28;21015;-69
2022/01/23 00:58:56;;;;;;;8.80;5.60;;;6.70;99.90;;;6.90;84.96;102424.56;5066303;28;21038;-69
2022/01/23 01:01:25;;;;;;;9.45;6.10;;;6.70;99.90;;;6.94;85.06;102433.13;5039404;28;20636;-70
2022/01/23 01:03:52;;;;;;;11.50;6.80;;;6.70;99.90;;;6.90;84.78;102421.97;5050511;28;20201;-69
2022/01/23 01:06:19;;;;;;;10.50;6.50;;;6.70;99.90;;;6.92;84.23;102419.34;5051035;28;20623;-69
2022/01/23 01:08:49;;;;;;;12.73;6.85;;;6.70;99.90;;;6.86;84.27;102422.94;5035953;28;20205;-69
2022/01/23 01:11:54;;;;;;;9.03;6.40;;;6.70;99.90;;;6.81;84.55;102424.00;5044778;28;20197;-69
2022/01/23 01:14:29;;;;;;;9.70;5.53;;;6.60;99.90;;;6.84;84.22;102437.72;5052980;28;20626;-69
2022/01/23 01:17:05;;;;;;;14.53;7.33;;;6.70;99.90;;;6.81;84.49;102432.63;5035142;28;20729;-70
2022/01/23 01:31:04;;;;;;;9.93;5.67;;;6.60;99.90;;;6.73;84.85;102425.94;5048155;28;20994;-69
2022/01/23 01:34:10;;;;;;;7.83;4.37;;;6.60;99.90;;;6.78;84.70;102429.25;5051651;28;21171;-69
2022/01/23 01:36:32;;;;;;;7.40;3.65;;;6.60;99.90;;;6.78;84.74;102434.44;5033842;28;21325;-70
2022/01/23 01:38:59;;;;;;;13.50;4.87;;;6.60;99.90;;;6.81;85.37;102426.59;5050875;28;20203;-69
2022/01/23 01:41:26;;;;;;;6.63;4.43;;;6.60;99.90;;;6.79;85.59;102423.19;5046077;28;20703;-69
2022/01/23 01:43:56;;;;;;;7.15;4.40;;;6.60;99.90;;;6.84;85.74;102429.06;5031317;28;20621;-69
2022/01/23 01:46:24;;;;;;;6.50;4.40;;;6.60;99.90;;;6.83;85.85;102432.56;5045312;28;20206;-69
2022/01/23 01:48:51;;;;;;;8.40;4.27;;;6.60;99.90;;;6.85;86.07;102425.59;5031640;28;20759;-70
2022/01/23 01:51:18;;;;;;;6.77;4.40;;;6.60;99.90;;;6.85;85.27;102421.28;5041780;28;20636;-69
2022/01/23 01:53:57;;;;;;;6.70;4.35;;;6.60;99.90;;;6.92;84.88;102424.53;5025443;28;20660;-69
2022/01/23 01:56:24;;;;;;;7.67;4.27;;;6.70;99.90;;;6.90;85.23;102418.50;5043643;28;20205;-69
2022/01/23 02:22:54;;;;;;;4.50;3.53;;;6.60;99.90;;;6.81;85.04;102400.63;5031800;28;20640;-68
2022/01/23 02:55:23;;;;;;;8.03;5.37;;;6.70;99.90;;;6.89;83.60;102435.00;5038424;28;21195;-69
2022/01/23 02:57:54;;;;;;;9.20;5.30;;;6.70;99.90;;;6.88;84.22;102428.09;5047056;28;20657;-69
2022/01/23 03:00:24;;;;;;;9.65;5.75;;;6.70;99.90;;;6.91;84.08;102434.06;5046443;28;20635;-69
2022/01/23 03:02:54;;;;;;;13.80;5.80;;;6.70;99.90;;;6.95;83.71;102427.88;5031473;28;20202;-69
2022/01/23 03:05:36;;;;;;;10.53;6.27;;;6.80;99.90;;;6.90;83.52;102431.50;5031875;28;20190;-70
2022/01/23 03:11:06;;;;;;;8.27;5.37;;;6.80;99.90;;;6.97;82.90;102438.22;5048847;28;20631;-67
2022/01/23 03:13:51;;;;;;;8.77;5.20;;;6.80;99.90;;;6.99;83.57;102434.69;5050720;28;21070;-67
2022/01/23 03:25:00;;;;;;;11.77;6.30;;;6.80;99.90;;;6.99;83.40;102447.66;5039640;28;20620;-67
2022/01/23 03:30:25;;;;;;;9.80;6.10;;;6.80;99.90;;;6.97;82.77;102436.47;5022574;28;20628;-67
2022/01/23 03:32:53;;;;;;;13.00;7.40;;;6.80;99.90;;;6.94;83.30;102431.38;5033734;28;20664;-67
2022/01/23 03:35:22;;;;;;;9.30;6.33;;;6.80;99.90;;;6.87;84.37;102431.59;5033683;28;20608;-67
2022/01/23 03:37:49;;;;;;;10.10;6.13;;;6.70;99.90;;;6.89;83.73;102429.81;5033404;28;20651;-67
2022/01/23 03:40:17;;;;;;;8.43;5.20;;;6.70;99.90;;;6.93;83.00;102431.41;5034109;28;20600;-67
2022/01/23 03:42:48;;;;;;;8.77;5.00;;;6.70;99.90;;;6.93;84.12;102427.09;5033765;28;20626;-67
2022/01/23 03:50:41;;;;;;;9.23;5.22;;;6.70;99.90;;;6.92;84.26;102422.78;5033627;28;20612;-67
2022/01/23 03:53:08;;;;;;;7.97;4.70;;;6.70;99.90;;;6.91;84.38;102422.81;5034704;28;20226;-66
2022/01/23 03:55:35;;;;;;;12.20;5.60;;;6.70;99.90;;;6.93;84.84;102431.41;5032984;28;20964;-66
2022/01/23 03:58:02;;;;;;;6.97;5.00;;;6.70;99.90;;;6.93;83.73;102424.50;5034960;28;20633;-65
2022/01/23 04:00:30;;;;;;;7.07;5.00;;;6.70;99.90;;;6.89;83.75;102424.63;5033078;28;20608;-67
2022/01/23 04:02:57;;;;;;;8.43;5.37;;;6.70;99.90;;;6.92;83.55;102424.53;5033422;28;20620;-66
2022/01/23 04:05:24;;;;;;;8.30;4.90;;;6.70;99.90;;;6.90;84.56;102424.56;5031582;28;20731;-66
2022/01/23 04:07:51;;;;;;;8.27;4.80;;;6.70;99.90;;;6.91;84.24;102423.69;5032835;28;20651;-67
2022/01/23 04:10:20;;;;;;;11.93;5.40;;;6.70;99.90;;;6.89;84.41;102433.25;5032910;28;20612;-67
2022/01/23 04:12:55;;;;;;;10.03;4.77;;;6.60;99.90;;;6.89;84.67;102441.03;5031879;28;20714;-67
2022/01/23 04:15:37;;;;;;;8.87;4.97;;;6.70;99.90;;;6.86;83.94;102438.53;5031386;28;20618;-66
2022/01/23 04:31:46;;;;;;;11.77;5.33;;;6.70;99.90;;;6.94;84.90;102404.59;5031331;28;21002;-66
2022/01/23 04:45:31;;;;;;;6.50;4.50;;;6.70;99.90;;;6.88;84.58;102415.13;5025205;28;20630;-67
2022/01/23 05:04:36;;;;;;;9.37;5.30;;;6.60;99.90;;;6.86;85.57;102433.34;5031595;28;20646;-66
2022/01/23 05:07:07;;;;;;;10.70;5.30;;;6.60;99.90;;;6.91;84.59;102430.59;5031717;28;21026;-66
2022/01/23 05:09:35;;;;;;;7.80;4.63;;;6.70;99.90;;;6.92;84.34;102438.34;5031044;28;20727;-67
2022/01/23 05:12:08;;;;;;;9.40;5.80;;;6.70;99.90;;;6.88;85.22;102435.88;5030524;28;20210;-67
2022/01/23 05:14:41;;;;;;;13.37;6.87;;;6.70;99.90;;;6.85;85.57;102435.97;5030706;28;20656;-67
2022/01/23 05:17:13;;;;;;;12.00;6.57;;;6.60;99.90;;;6.86;85.75;102440.25;5029774;28;21050;-66
2022/01/23 05:19:42;;;;;;;11.30;5.90;;;6.60;99.90;;;6.85;86.05;102442.03;5030569;28;20623;-67
2022/01/23 05:22:21;;;;;;;14.80;7.37;;;6.60;99.90;;;6.87;85.59;102441.97;5031524;28;21000;-67
2022/01/23 05:27:23;;;;;;;13.57;6.97;;;6.60;99.90;;;6.87;84.62;102436.78;5030744;28;20663;-66
2022/01/23 05:29:50;;;;;;;14.40;7.00;;;6.60;99.90;;;6.90;84.29;102437.53;5032737;28;20708;-67
2022/01/23 05:32:20;;;;;;;11.60;5.37;;;6.70;99.90;;;6.91;84.50;102438.41;5031068;28;20636;-67
2022/01/23 05:34:48;;;;;;;11.23;6.20;;;6.70;99.90;;;6.89;84.58;102442.78;5031981;28;21044;-67
2022/01/23 05:37:16;;;;;;;11.53;6.03;;;6.70;99.90;;;6.84;85.27;102439.44;5030786;28;20747;-67
2022/01/23 05:39:43;;;;;;;6.23;4.40;;;6.60;99.90;;;6.86;85.61;102448.91;5014410;28;20620;-67
2022/01/23 05:42:10;;;;;;;9.17;4.83;;;6.60;99.90;;;6.91;84.27;102453.97;5031371;28;20635;-67
2022/01/23 05:44:40;;;;;;;11.00;6.80;;;6.70;99.90;;;6.87;84.81;102463.59;5032288;28;20612;-67
2022/01/23 05:47:10;;;;;;;14.27;8.07;;;6.70;99.90;;;6.84;85.26;102465.41;5030680;28;20749;-67
2022/01/23 05:49:37;;;;;;;14.77;8.10;;;6.60;99.90;;;6.85;85.48;102462.78;5031049;28;20983;-66
2022/01/23 05:52:06;;;;;;;25.73;9.45;;;6.70;99.90;;;6.82;84.71;102468.03;5031102;28;20628;-66
2022/01/23 05:54:34;;;;;;;16.67;8.80;;;6.60;99.90;;;6.76;85.14;102469.97;5030337;28;20228;-67
2022/01/23 05:57:01;;;;;;;17.80;8.83;;;6.60;99.90;;;6.82;84.87;102470.63;5012602;28;20633;-67
2022/01/23 05:59:29;;;;;;;16.75;8.95;;;6.60;99.90;;;6.85;84.64;102474.91;5031753;28;20699;-67
2022/01/23 06:01:56;;;;;;;17.38;8.68;;;6.60;99.90;;;6.82;84.80;102474.97;5029850;28;20197;-67
2022/01/23 06:04:24;;;;;;;16.80;8.30;;;6.60;99.90;;;6.85;84.15;102480.09;5030664;28;20288;-67
2022/01/23 06:06:55;;;;;;;19.03;9.03;;;6.60;99.90;;;6.87;83.73;102467.94;5031007;28;20628;-67
2022/01/23 06:09:23;;;;;;;19.80;9.77;;;6.70;99.90;;;6.91;84.36;102461.75;5030394;28;20639;-66
2022/01/23 06:11:50;;;;;;;14.80;8.52;;;6.70;99.90;;;6.85;83.91;102465.38;5030405;28;21261;-67
2022/01/23 06:14:19;;;;;;;19.13;8.80;;;6.70;99.90;;;6.85;84.28;102467.13;5013050;28;20666;-66
2022/01/23 06:16:46;;;;;;;21.23;9.47;;;6.70;99.90;;;6.85;83.57;102464.53;5027304;28;20747;-66
2022/01/23 06:19:14;;;;;;;18.47;9.07;;;6.60;99.90;;;6.83;83.97;102468.91;5018979;28;20628;-69
2022/01/23 06:21:41;;;;;;;16.03;8.67;;;6.60;99.90;;;6.84;83.68;102473.19;5022566;28;20670;-66
2022/01/23 06:24:13;;;;;;;17.03;8.87;;;6.60;99.90;;;6.81;84.74;102474.16;5031836;28;20609;-68
2022/01/23 06:26:47;;;;;;;17.90;8.80;;;6.60;99.90;;;6.81;84.34;102473.28;5030952;28;20644;-68
2022/01/23 06:29:17;;;;;;;17.02;8.77;;;6.60;99.90;;;6.81;84.46;102478.47;5030324;28;20604;-66
2022/01/23 06:31:46;;;;;;;14.77;7.47;;;6.60;99.90;;;6.76;84.48;102472.53;5013923;28;20681;-68
2022/01/23 06:34:15;;;;;;;14.18;7.30;;;6.60;99.90;;;6.80;84.65;102479.34;5029079;28;20759;-68
2022/01/23 06:36:43;;;;;;;14.93;8.07;;;6.60;99.90;;;6.82;83.86;102481.03;5025123;28;20205;-67
2022/01/23 06:39:12;;;;;;;22.67;11.55;;;6.60;99.90;;;6.81;85.08;102478.47;5023625;28;20628;-68
2022/01/23 06:41:40;;;;;;;21.07;10.00;;;6.60;99.90;;;6.80;85.08;102482.81;5029788;28;20208;-68
2022/01/23 06:44:07;;;;;;;17.80;8.53;;;6.60;99.90;;;6.75;84.55;102487.25;5028081;28;20644;-68
2022/01/23 06:46:34;;;;;;;22.50;11.03;;;6.60;99.90;;;6.73;84.99;102485.63;5029647;28;20637;-68
2022/01/23 06:49:01;;;;;;;17.87;9.50;;;6.50;99.90;;;6.71;85.21;102488.22;5021433;28;20636;-68
2022/01/23 06:51:28;;;;;;;15.40;8.10;;;6.50;99.90;;;6.74;85.68;102490.75;5030378;28;20632;-67
2022/01/23 06:53:55;;;;;;;18.60;8.00;;;6.50;99.90;;;6.73;86.16;102494.22;5030042;28;20592;-68
2022/01/23 06:56:22;;;;;;;16.37;7.93;;;6.50;99.90;;;6.75;85.96;102497.63;5024899;28;21170;-68
2022/01/23 06:58:49;;;;;;;15.27;7.20;;;6.60;99.90;;;6.77;85.68;102493.25;5032397;28;20648;-68
2022/01/23 07:01:16;;;;;;;17.33;8.67;;;6.60;99.90;;;6.82;85.42;102500.91;5035916;28;21074;-67
2022/01/23 07:03:43;;;;;;;13.57;7.97;;;6.60;99.90;;;6.81;86.07;102505.28;5038053;28;20608;-67
2022/01/23 07:06:11;;;;;;;16.27;7.47;;;6.60;99.90;;;6.80;86.01;102513.94;5029487;28;20670;-68
2022/01/23 07:08:58;;;;;;;14.60;6.83;;;6.60;99.90;;;6.81;85.33;102513.06;5009957;28;21203;-67
2022/01/23 07:11:25;;;;;;;11.97;6.30;;;6.60;99.90;;;6.82;85.92;102521.69;5017542;28;20644;-67
2022/01/23 07:13:52;;;;;;;13.63;6.45;;;6.60;99.90;;;6.77;85.88;102526.16;5028757;28;21030;-67
2022/01/23 07:16:19;;;;;;;13.90;7.33;;;6.60;99.90;;;6.78;85.64;102531.28;5025949;28;20186;-67
2022/01/23 07:18:46;;;;;;;10.10;6.10;;;6.60;99.90;;;6.81;84.34;102528.63;5020826;28;20732;-67
2022/01/23 07:21:12;;;;;;;10.03;5.97;;;6.60;99.90;;;6.71;85.90;102523.69;5029149;28;20625;-68
2022/01/23 07:23:40;;;;;;;9.37;5.90;;;6.50;99.90;;;6.65;86.19;102519.53;5029916;28;20640;-66
2022/01/23 07:26:07;;;;;;;12.77;5.50;;;6.40;99.90;;;6.56;85.64;102524.13;5030401;28;20592;-68
2022/01/23 07:28:39;;;;;;;9.53;5.30;;;6.40;99.90;;;6.61;86.69;102533.47;5031093;28;20644;-67
2022/01/23 07:31:08;;;;;;;9.10;5.72;;;6.40;99.90;;;6.60;86.11;102536.94;5029403;28;20641;-68
2022/01/23 07:33:36;;;;;;;12.17;5.60;;;6.40;99.90;;;6.61;86.53;102530.88;5027476;28;20226;-70
2022/01/23 07:36:04;;;;;;;10.37;5.57;;;6.40;99.90;;;6.59;86.70;102532.66;5028613;28;20659;-68
2022/01/23 07:38:31;;;;;;;10.80;5.47;;;6.40;99.90;;;6.58;87.05;102527.53;5027194;28;21272;-68
2022/01/23 07:40:58;;;;;;;11.37;6.30;;;6.40;99.90;;;6.61;86.27;102538.66;5029819;28;21072;-68
2022/01/23 07:43:25;;;;;;;7.68;4.88;;;6.40;99.90;;;6.58;86.58;102533.53;5022333;28;20647;-69
2022/01/23 07:45:52;;;;;;;10.57;5.90;;;6.40;99.90;;;6.60;86.58;102543.91;5027879;28;20202;-69
2022/01/23 07:48:19;;;;;;;15.63;6.30;;;6.40;99.90;;;6.63;86.33;102538.63;5027953;28;20747;-68
2022/01/23 07:50:51;;;;;;;11.63;6.00;;;6.40;99.90;;;6.61;87.04;102533.47;5030926;28;20604;-68
2022/01/23 07:53:18;;;;;;;9.23;5.13;;;6.40;99.90;;;6.56;87.33;102542.28;5027668;28;20632;-66
2022/01/23 07:55:45;;;;;;;11.40;6.37;;;6.30;99.90;;;6.56;87.32;102548.28;5026309;28;20617;-66
2022/01/23 07:58:14;;;;;;;18.03;5.63;;;6.40;99.90;;;6.60;86.91;102542.13;5029731;28;20637;-67
2022/01/23 08:00:47;;;;;;;8.67;5.50;;;6.40;99.90;;;6.61;87.16;102555.97;5028018;28;20608;-65
2022/01/23 08:03:15;;;;;;;9.37;4.63;;;6.40;99.90;;;6.61;86.40;102556.81;5031346;28;20612;-67
2022/01/23 08:05:45;;;;;;;9.40;5.30;;;6.40;99.90;;;6.43;87.21;102546.06;5026937;28;20699;-68
2022/01/23 08:08:12;;;;;;;10.82;6.35;;;6.30;99.90;;;6.49;87.84;102553.69;5028732;28;20648;-68
2022/01/23 08:10:40;;;;;;;13.47;7.40;;;6.30;99.90;;;6.57;88.31;102554.34;5030085;28;20213;-68
2022/01/23 08:13:07;;;;;;;13.40;7.38;;;6.30;99.90;;;6.73;89.33;102553.06;5029363;28;20636;-68
2022/01/23 08:15:35;;;;;;;13.03;6.73;;;6.50;99.90;;;6.76;87.24;102563.34;5029180;28;20226;-67
2022/01/23 08:18:04;;;;;;;14.60;7.43;;;6.60;99.90;;;6.79;86.49;102565.88;5031290;28;20652;-65
2022/01/23 08:20:33;;;;;;;13.60;6.20;;;6.60;99.90;;;6.82;86.92;102556.25;5030427;28;20623;-66
2022/01/23 08:23:03;;;;;;;11.90;6.40;;;6.60;99.90;;;6.87;86.61;102559.59;5033255;28;20672;-68
2022/01/23 08:25:31;;;;;;;11.60;6.60;;;6.70;99.90;;;6.92;86.32;102560.31;5030774;28;20666;-68
2022/01/23 08:27:58;;;;;;;18.77;7.53;;;6.70;99.90;;;6.97;86.22;102568.00;5032862;28;20666;-66
2022/01/23 08:30:26;;;;;;;15.40;7.63;;;6.80;99.90;;;7.01;85.44;102569.59;5031664;28;20655;-66
2022/01/23 08:32:52;;;;;;;14.70;7.53;;;6.80;99.90;;;7.02;84.64;102572.19;5034417;28;20210;-66
2022/01/23 08:35:20;;;;;;;12.27;6.90;;;6.90;99.90;;;7.06;84.98;102572.94;5030202;28;20660;-65
2022/01/23 08:37:47;;;;;;;12.20;6.70;;;6.90;99.90;;;7.06;84.90;102567.75;5030041;28;20699;-68
2022/01/23 08:40:21;;;;;;;11.47;7.30;;;6.90;99.90;;;7.09;84.16;102574.59;5031302;28;20644;-68
2022/01/23 08:42:52;;;;;;;12.83;6.70;;;6.90;99.90;;;7.09;84.75;102575.47;5030968;28;20689;-68
2022/01/23 08:45:19;;;;;;;12.10;7.07;;;6.90;99.90;;;7.12;84.44;102577.09;5031721;28;21187;-68
2022/01/23 08:47:47;;;;;;;11.50;7.00;;;6.90;99.90;;;7.14;84.62;102581.38;5032588;28;20639;-68
2022/01/23 08:50:15;;;;;;;14.30;7.80;;;7.00;99.90;;;7.18;83.92;102583.00;5033831;28;20612;-68
2022/01/23 08:52:42;;;;;;;17.30;7.97;;;7.00;99.90;;;7.23;84.25;102583.72;5031646;28;20641;-68
2022/01/23 08:55:09;;;;;;;13.27;7.63;;;7.10;99.90;;;7.27;84.02;102592.28;5025987;28;20665;-65
2022/01/23 08:57:36;;;;;;;18.20;8.97;;;7.10;99.90;;;7.29;83.13;102586.16;5027353;28;20636;-67
2022/01/23 09:00:24;;;;;;;17.10;9.07;;;7.10;99.90;;;7.33;83.44;102577.38;5030125;28;21206;-68
2022/01/23 09:02:50;;;;;;;20.70;9.97;;;7.20;99.90;;;7.35;83.03;102580.78;5032745;28;20588;-68
2022/01/23 09:05:18;;;;;;;19.50;9.90;;;7.20;99.90;;;7.34;82.63;102584.28;5029224;28;21629;-68
2022/01/23 09:07:45;;;;;;;19.30;9.40;;;7.20;99.90;;;7.28;83.34;102579.28;5062649;22;20791;-67
2022/01/23 09:10:11;;;;;;;21.00;9.13;;;7.10;99.90;;;7.35;82.18;102579.91;5042013;28;20619;-70
2022/01/23 09:15:06;;;;;;;18.00;8.90;;;7.10;99.90;;;7.33;81.56;102582.56;5051224;28;20663;-69
2022/01/23 09:17:34;;;;;;;18.33;8.00;;;7.20;99.90;;;7.40;82.03;102583.25;5046872;28;20731;-68
2022/01/23 09:20:01;;;;;;;15.30;8.53;;;7.20;99.90;;;7.44;81.76;102582.28;5030978;28;21207;-68
2022/01/23 09:22:30;;;;;;;19.60;9.07;;;7.30;99.90;;;7.46;81.30;102575.28;5031846;28;20591;-69
2022/01/23 09:25:00;;;;;;;14.50;8.17;;;7.30;99.90;;;7.49;81.48;102581.25;5031438;28;21180;-67
2022/01/23 09:27:29;;;;;;;21.70;8.50;;;7.30;99.90;;;7.55;80.67;102577.63;5030396;28;20668;-65
2022/01/23 09:30:05;;;;;;;19.47;9.30;;;7.40;99.90;;;7.58;79.85;102578.38;5029714;28;20632;-68
2022/01/23 09:32:32;;;;;;;16.00;8.40;;;7.40;99.90;;;7.60;80.21;102578.34;5030327;28;20620;-69
2022/01/23 09:34:59;;;;;;;17.60;8.73;;;7.40;99.90;;;7.64;80.42;102578.22;5030296;28;20674;-68
2022/01/23 09:37:26;;;;;;;19.50;9.40;;;7.50;99.90;;;7.67;79.65;102580.72;5031631;28;20639;-69
2022/01/23 09:39:53;;;;;;;21.30;10.27;;;7.50;99.90;;;7.66;79.17;102583.38;5046904;28;21196;-68
2022/01/23 09:42:28;;;;;;;20.00;10.03;;;7.50;99.90;;;7.64;79.87;102586.03;5030675;28;20974;-68
2022/01/23 09:45:04;;;;;;;19.60;8.73;;;7.50;99.90;;;7.69;79.81;102584.13;5037733;28;21220;-69
2022/01/23 09:47:32;;;;;;;21.13;9.13;;;7.60;99.90;;;7.76;79.35;102592.59;5029961;28;20665;-68
2022/01/23 09:50:03;;;;;;;23.50;8.83;;;7.60;99.90;;;7.77;79.09;102592.53;5031466;28;20700;-69
2022/01/23 09:52:33;;;;;;;22.07;9.90;;;7.60;99.90;;;7.69;79.47;102591.91;5014217;28;20668;-70
2022/01/23 09:55:09;;;;;;;21.77;10.97;;;7.60;99.90;;;7.60;79.98;102589.56;5030941;28;20657;-68
2022/01/23 09:57:48;;;;;;;19.57;11.13;;;7.50;99.90;;;7.35;82.73;102585.97;5028289;28;20660;-68
2022/01/23 10:00:21;;;;;;;23.67;10.80;;;7.40;99.90;;;7.64;81.05;102588.63;5028571;28;20636;-69
2022/01/23 10:02:49;;;;;;;28.57;12.40;;;7.50;99.90;;;7.73;81.46;102585.72;5045931;28;21069;-69
2022/01/23 10:05:18;;;;;;;22.90;11.27;;;7.60;99.90;;;7.82;80.37;102582.88;5028182;28;20676;-67
2022/01/23 10:07:46;;;;;;;21.97;11.70;;;7.70;99.90;;;7.92;79.64;102587.81;5020553;28;20645;-66
2022/01/23 10:10:23;;;;;;;25.80;11.87;;;7.80;99.90;;;8.03;79.59;102591.75;5015256;28;20646;-68
2022/01/23 10:13:01;;;;;;;17.40;8.00;;;7.90;99.90;;;8.12;79.66;102590.63;5030941;28;21156;-68
2022/01/23 10:15:32;;;;;;;22.50;10.53;;;8.10;99.90;;;8.14;79.72;102587.09;5026675;28;20670;-69
2022/01/23 10:18:01;;;;;;;22.23;10.80;;;8.10;99.90;;;8.08;79.31;102583.81;5010032;28;21047;-69
2022/01/23 10:20:29;;;;;;;17.40;8.40;;;8.00;99.90;;;8.10;79.15;102584.63;5010946;28;20653;-68
2022/01/23 10:22:57;;;;;;;18.83;10.10;;;8.00;99.90;;;8.08;78.12;102581.22;5023237;28;20979;-67
2022/01/23 10:25:33;;;;;;;16.53;8.60;;;8.00;99.90;;;8.15;77.63;102582.75;5030168;28;20644;-67
2022/01/23 10:28:08;;;;;;;16.47;8.57;;;8.00;99.90;;;8.14;77.26;102583.63;5027467;28;20663;-66
2022/01/23 10:30:48;;;;;;;15.77;8.37;;;8.10;99.90;;;8.01;77.79;102577.13;5030473;28;20651;-68
2022/01/23 10:33:29;;;;;;;17.37;8.83;;;8.00;99.90;;;8.16;77.17;102579.22;5029307;28;20618;-70
2022/01/23 10:36:12;;;;;;;18.90;9.83;;;8.10;99.90;;;8.21;76.82;102582.56;5030556;28;21250;-70
2022/01/23 10:39:00;;;;;;;22.23;9.53;;;8.20;99.90;;;8.13;77.50;102574.16;5029193;28;20625;-69
2022/01/23 10:49:56;;;;;;;23.50;10.90;;;8.10;99.90;;;8.00;77.12;102565.03;5029462;28;20616;-68
2022/01/23 10:52:33;;;;;;;19.10;8.20;;;8.00;99.90;;;8.09;77.08;102572.53;5027081;28;20633;-70
2022/01/23 10:55:05;;;;;;;20.07;9.50;;;8.00;99.90;;;8.11;76.82;102560.34;5026213;28;20668;-70
2022/01/23 10:57:42;;;;;;;21.03;10.00;;;8.00;99.90;;;8.14;77.88;102565.44;5027566;28;20666;-69
2022/01/23 11:00:34;;;;;;;21.57;11.10;;;8.10;99.90;;;8.13;77.76;102567.19;5023264;28;21203;-69
2022/01/23 11:03:22;;;;;;;21.70;11.27;;;8.10;99.90;;;8.09;78.26;102570.78;5026977;28;21106;-69
2022/01/23 11:05:51;;;;;;;24.27;13.10;;;8.10;99.90;;;8.00;78.90;102568.47;5027608;28;20712;-68
2022/01/23 11:08:30;;;;;;;20.70;11.00;;;8.00;99.90;;;8.02;78.10;102565.81;5030397;28;21269;-69
2022/01/23 11:11:06;;;;;;;18.30;9.13;;;8.00;99.90;;;8.03;78.18;102567.53;5028170;28;20632;-69
2022/01/23 11:19:39;;;;;;;21.10;10.67;;;7.90;99.90;;;7.98;78.73;102566.81;5035397;28;20668;-69
2022/01/23 11:22:17;;;;;;;22.70;11.60;;;7.90;99.90;;;7.99;78.62;102565.91;5029556;28;21251;-68
2022/01/23 11:24:47;;;;;;;21.77;10.77;;;7.90;99.90;;;7.98;78.68;102561.63;5029548;28;20620;-70
2022/01/23 11:27:19;;;;;;;22.03;10.67;;;7.90;99.90;;;8.05;78.19;102563.13;5029112;28;20615;-69
2022/01/23 11:30:07;;;;;;;26.50;11.53;;;8.00;99.90;;;7.92;77.57;102556.59;5029292;28;20625;-68
2022/01/23 11:32:38;;;;;;;23.13;11.60;;;7.90;99.90;;;7.89;78.55;102556.69;5029352;28;20620;-70
2022/01/23 11:35:12;;;;;;;20.97;10.87;;;7.80;99.90;;;7.80;79.75;102558.69;5029508;28;20668;-70
2022/01/23 11:37:52;;;;;;;21.63;10.77;;;7.80;99.90;;;7.87;78.79;102550.69;5030847;28;20635;-71
2022/01/23 11:54:04;;;;;;;20.30;10.87;;;7.80;99.90;;;7.75;79.57;102547.56;5034962;28;20608;-73
2022/01/23 11:56:42;;;;;;;24.10;10.37;;;7.70;99.90;;;7.86;79.01;102549.84;5033307;28;20751;-73
2022/01/23 11:59:09;;;;;;;24.10;11.37;;;7.80;99.90;;;7.86;78.60;102544.63;5033738;28;20636;-71
2022/01/23 12:01:39;;;;;;;19.47;9.60;;;7.80;99.90;;;7.94;78.27;102541.81;5034779;28;21235;-73
2022/01/23 12:04:06;;;;;;;24.03;10.23;;;7.90;99.90;;;7.95;78.37;102544.34;5033697;28;20617;-72
2022/01/23 12:06:42;;;;;;;20.27;9.30;;;7.90;99.90;;;7.90;79.95;102542.81;5034286;28;20719;-73
2022/01/23 12:09:19;;;;;;;20.17;9.70;;;7.80;99.90;;;7.96;78.95;102543.47;5032007;28;20647;-73
2022/01/23 12:12:30;;;;;;;17.20;7.60;;;7.90;99.90;;;7.93;79.36;102537.50;5033895;28;20616;-71
2022/01/23 12:18:31;;;;;;;21.43;11.17;;;7.90;99.90;;;8.10;78.46;102535.22;5034545;28;21214;-73
2022/01/23 12:20:58;;;;;;;22.37;11.00;;;8.00;99.90;;;7.94;79.02;102521.88;5033353;28;20604;-73
2022/01/23 12:23:25;;;;;;;24.87;11.13;;;7.90;99.90;;;8.04;78.47;102514.63;5016782;28;20600;-73
2022/01/23 12:25:56;;;;;;;22.17;10.00;;;7.90;99.90;;;7.99;79.56;102512.16;5034250;28;20616;-74
2022/01/23 12:28:32;;;;;;;21.47;9.80;;;7.90;99.90;;;8.06;78.65;102503.28;5034381;28;20731;-74
2022/01/23 12:31:23;;;;;;;24.80;11.80;;;8.00;99.90;;;8.15;78.44;102508.19;5033142;28;21175;-73
2022/01/23 12:33:53;;;;;;;22.33;11.70;;;8.10;99.90;;;8.10;77.68;102504.88;5033729;28;20631;-72
2022/01/23 12:36:23;;;;;;;17.53;8.80;;;8.10;99.90;;;8.17;77.70;102505.53;5033992;28;20660;-74
2022/01/23 12:38:54;;;;;;;20.60;10.90;;;8.10;99.90;;;8.19;77.87;102511.53;5034086;28;20620;-74
2022/01/23 12:41:32;;;;;;;15.23;8.30;;;8.10;99.90;;;8.23;77.75;102505.34;5033863;28;20619;-70
2022/01/23 12:44:26;;;;;;;17.40;8.97;;;8.10;99.90;;;8.25;77.46;102496.63;5032885;28;20624;-73
2022/01/23 12:46:58;;;;;;;19.27;9.13;;;8.20;99.90;;;8.32;77.55;102492.06;5031121;28;20624;-71
2022/01/23 12:49:38;;;;;;;20.70;10.90;;;8.20;99.90;;;8.31;78.21;102492.94;5033941;28;20723;-74
2022/01/23 12:52:10;;;;;;;21.60;11.93;;;8.20;99.90;;;8.26;77.59;102494.88;5032693;28;20620;-71
2022/01/23 12:54:53;;;;;;;21.53;11.03;;;8.20;99.90;;;8.33;77.75;102496.34;5033577;28;20715;-71
2022/01/23 12:57:35;;;;;;;18.47;10.40;;;8.20;99.90;;;8.34;77.27;102498.06;5032563;28;20623;-69
2022/01/23 13:00:10;;;;;;;22.80;10.63;;;8.30;99.90;;;8.29;77.19;102499.97;5019240;28;20620;-70
2022/01/23 13:02:44;;;;;;;20.43;10.23;;;8.20;99.90;;;8.34;77.37;102495.47;5043802;28;20620;-72
2022/01/23 13:05:14;;;;;;;18.00;9.57;;;8.30;99.90;;;8.31;76.75;102487.75;5032433;28;21078;-71
2022/01/23 13:08:08;;;;;;;18.57;9.60;;;8.20;99.90;;;8.37;76.57;102487.53;5031018;28;20731;-71
2022/01/23 13:13:34;;;;;;;19.67;10.80;;;8.30;99.90;;;8.22;77.02;102494.06;5038612;28;20603;-71
2022/01/23 13:19:04;;;;;;;18.87;9.90;;;8.20;99.90;;;8.32;77.33;102490.31;5051552;28;21226;-73
2022/01/23 13:32:46;;;;;;;23.40;12.30;;;8.40;99.90;;;8.40;76.74;102484.84;5032120;28;20619;-72
2022/01/23 13:35:17;;;;;;;20.90;10.13;;;8.40;99.90;;;8.42;77.26;102486.50;5029920;28;21204;-72
2022/01/23 13:37:57;;;;;;;23.67;11.77;;;8.40;99.90;;;8.25;77.72;102485.31;5031297;28;21264;-68
2022/01/23 13:40:36;;;;;;;20.73;10.03;;;8.20;99.90;;;8.41;77.73;102486.56;5031176;28;20608;-68
2022/01/23 13:59:57;;;;;;;19.77;9.87;;;8.30;99.90;;;8.31;77.61;102478.22;5032067;28;21230;-73
2022/01/23 14:02:29;;;;;;;25.07;12.47;;;8.20;99.90;;;8.35;77.49;102479.81;5031127;28;20609;-72
2022/01/23 14:05:15;;;;;;;25.33;12.80;;;8.30;99.90;;;8.37;76.82;102480.59;5030334;28;21188;-72
2022/01/23 14:07:51;;;;;;;27.83;12.53;;;8.30;99.90;;;8.39;76.89;102485.78;5029712;28;20822;-71